createdAt,value
2018-07-12T00:00:45.290Z,14.72
2018-07-12T00:01:50.163Z,14.71
2018-07-12T00:02:54.552Z,14.69
2018-07-12T00:03:58.726Z,14.68
2018-07-12T00:05:02.412Z,14.68
2018-07-12T00:06:07.483Z,14.67
2018-07-12T00:07:11.218Z,14.66
2018-07-12T00:08:14.849Z,14.66
2018-07-12T00:09:18.483Z,14.67
2018-07-12T00:10:26.058Z,14.65
2018-07-12T00:11:30.417Z,14.64
2018-07-12T00:12:40.306Z,14.62
2018-07-12T00:13:44.019Z,14.60
2018-07-12T00:14:51.248Z,14.55
2018-07-12T00:15:58.569Z,14.53
2018-07-12T00:17:03.528Z,14.51
2018-07-12T00:19:24.336Z,14.53
2018-07-12T00:20:31.218Z,14.54
2018-07-12T00:21:37.116Z,14.53
2018-07-12T00:22:42.237Z,14.52
2018-07-12T00:23:46.230Z,14.51
2018-07-12T00:24:51.387Z,14.51
2018-07-12T00:25:56.360Z,14.48
2018-07-12T00:27:00.228Z,14.48
2018-07-12T00:28:05.935Z,14.41
2018-07-12T00:29:09.803Z,14.41
2018-07-12T00:30:13.757Z,14.41
2018-07-12T00:31:19.021Z,14.39
2018-07-12T00:32:23.167Z,14.37
2018-07-12T00:33:26.798Z,14.33
2018-07-12T00:34:30.455Z,14.32
2018-07-12T00:35:34.141Z,14.32
2018-07-12T00:36:39.654Z,14.28
2018-07-12T00:37:43.334Z,14.28
2018-07-12T00:38:47.093Z,14.28
2018-07-12T00:39:51.281Z,14.27
2018-07-12T00:40:55.894Z,14.27
2018-07-12T00:41:59.571Z,14.25
2018-07-12T00:43:03.559Z,14.27
2018-07-12T00:44:07.816Z,14.27
2018-07-12T00:45:11.510Z,14.30
2018-07-12T00:46:15.165Z,14.28
2018-07-12T00:47:20.071Z,14.28
2018-07-12T00:48:23.734Z,14.25
2018-07-12T00:49:28.293Z,14.25
2018-07-12T00:50:31.926Z,14.23
2018-07-12T00:51:35.597Z,14.24
2018-07-12T00:52:39.641Z,14.26
2018-07-12T00:53:43.311Z,14.26
2018-07-12T00:54:47.725Z,14.25
2018-07-12T00:55:51.689Z,14.24
2018-07-12T00:56:55.757Z,14.24
2018-07-12T00:58:01.586Z,14.22
2018-07-12T00:59:05.503Z,14.23
2018-07-12T01:00:09.142Z,14.22
2018-07-12T01:01:12.845Z,14.23
2018-07-12T01:02:17.100Z,14.23
2018-07-12T01:03:22.617Z,14.22
2018-07-12T01:04:27.089Z,14.19
2018-07-12T01:05:32.764Z,14.19
2018-07-12T01:06:36.484Z,14.18
2018-07-12T01:07:40.465Z,14.17
2018-07-12T01:08:48.385Z,14.14
2018-07-12T01:09:52.023Z,14.12
2018-07-12T01:10:55.688Z,14.10
2018-07-12T01:12:12.166Z,14.10
2018-07-12T01:13:15.816Z,14.08
2018-07-12T01:14:21.288Z,14.08
2018-07-12T01:15:27.308Z,14.06
2018-07-12T01:16:32.160Z,14.04
2018-07-12T01:17:35.781Z,14.03
2018-07-12T01:18:40.044Z,14.01
2018-07-12T01:19:43.689Z,14.00
2018-07-12T01:20:48.745Z,13.99
2018-07-12T01:21:53.739Z,13.97
2018-07-12T01:22:57.416Z,13.95
2018-07-12T01:24:01.071Z,13.94
2018-07-12T01:25:05.725Z,13.91
2018-07-12T01:26:09.921Z,13.91
2018-07-12T01:27:13.553Z,13.91
2018-07-12T01:28:18.341Z,13.88
2018-07-12T01:29:21.999Z,13.84
2018-07-12T01:30:26.209Z,13.81
2018-07-12T01:31:30.807Z,13.80
2018-07-12T01:32:34.476Z,13.78
2018-07-12T01:33:38.177Z,13.77
2018-07-12T01:34:42.449Z,13.76
2018-07-12T01:35:46.091Z,13.74
2018-07-12T01:36:49.869Z,13.74
2018-07-12T01:37:53.498Z,13.72
2018-07-12T01:38:57.390Z,13.72
2018-07-12T01:40:01.037Z,13.71
2018-07-12T01:41:05.014Z,13.72
2018-07-12T01:42:08.665Z,13.71
2018-07-12T01:43:12.370Z,13.72
2018-07-12T01:44:15.997Z,13.73
2018-07-12T01:45:19.681Z,13.73
2018-07-12T01:46:23.336Z,13.75
2018-07-12T01:47:28.337Z,13.74
2018-07-12T01:48:32.010Z,13.75
2018-07-12T01:49:35.687Z,13.76
2018-07-12T01:50:40.032Z,13.78
2018-07-12T01:51:43.709Z,13.77
2018-07-12T01:52:48.386Z,13.75
2018-07-12T01:53:52.508Z,13.71
2018-07-12T01:54:56.169Z,13.71
2018-07-12T01:55:59.797Z,13.70
2018-07-12T01:57:04.362Z,13.69
2018-07-12T01:58:08.026Z,13.67
2018-07-12T01:59:12.188Z,13.68
2018-07-12T02:00:16.309Z,13.68
2018-07-12T02:01:21.139Z,13.66
2018-07-12T02:02:24.819Z,13.67
2018-07-12T02:03:28.484Z,13.67
2018-07-12T02:04:32.793Z,13.69
2018-07-12T02:05:37.452Z,13.70
2018-07-12T02:06:41.468Z,13.69
2018-07-12T02:07:45.166Z,13.66
2018-07-12T02:08:48.820Z,13.67
2018-07-12T02:09:52.447Z,13.68
2018-07-12T02:10:56.826Z,13.67
2018-07-12T02:12:00.485Z,13.68
2018-07-12T02:13:05.064Z,13.67
2018-07-12T02:14:08.770Z,13.66
2018-07-12T02:15:12.799Z,13.67
2018-07-12T02:16:17.337Z,13.68
2018-07-12T02:17:20.993Z,13.68
2018-07-12T02:18:24.664Z,13.68
2018-07-12T02:19:28.672Z,13.68
2018-07-12T02:20:32.311Z,13.67
2018-07-12T02:21:35.956Z,13.67
2018-07-12T02:22:39.616Z,13.65
2018-07-12T02:23:43.310Z,13.65
2018-07-12T02:24:46.977Z,13.63
2018-07-12T02:25:51.019Z,13.61
2018-07-12T02:26:54.698Z,13.60
2018-07-12T02:27:58.403Z,13.60
2018-07-12T02:29:02.190Z,13.62
2018-07-12T02:30:05.828Z,13.60
2018-07-12T02:31:09.512Z,13.58
2018-07-12T02:32:13.549Z,13.56
2018-07-12T02:33:17.224Z,13.54
2018-07-12T02:34:21.783Z,13.52
2018-07-12T02:35:26.245Z,13.48
2018-07-12T02:36:29.943Z,13.48
2018-07-12T02:37:34.737Z,13.47
2018-07-12T02:38:39.232Z,13.47
2018-07-12T02:39:46.376Z,13.47
2018-07-12T02:40:50.459Z,13.46
2018-07-12T02:41:54.814Z,13.48
2018-07-12T02:42:58.593Z,13.48
2018-07-12T02:44:02.276Z,13.51
2018-07-12T02:45:06.290Z,13.54
2018-07-12T02:46:10.508Z,13.55
2018-07-12T02:47:14.186Z,13.59
2018-07-12T02:48:19.759Z,13.60
2018-07-12T02:49:23.385Z,13.40
2018-07-12T02:50:27.301Z,13.30
2018-07-12T02:51:32.257Z,13.24
2018-07-12T02:52:36.527Z,13.34
2018-07-12T02:53:40.174Z,13.39
2018-07-12T02:54:44.095Z,13.42
2018-07-12T02:55:47.805Z,13.46
2018-07-12T02:56:52.635Z,13.48
2018-07-12T02:57:57.592Z,13.52
2018-07-12T02:59:01.243Z,13.53
2018-07-12T03:00:04.924Z,13.52
2018-07-12T03:01:08.605Z,13.54
2018-07-12T03:02:12.293Z,13.55
2018-07-12T03:03:15.929Z,13.57
2018-07-12T03:04:19.985Z,13.57
2018-07-12T03:05:24.361Z,13.59
2018-07-12T03:06:28.072Z,13.57
2018-07-12T03:07:31.790Z,13.59
2018-07-12T03:08:35.477Z,13.61
2018-07-12T03:09:39.130Z,13.62
2018-07-12T03:10:43.069Z,13.62
2018-07-12T03:11:46.762Z,13.65
2018-07-12T03:12:51.408Z,13.67
2018-07-12T03:13:55.090Z,13.69
2018-07-12T03:14:59.732Z,13.72
2018-07-12T03:16:04.451Z,13.69
2018-07-12T03:17:09.381Z,13.57
2018-07-12T03:18:13.014Z,13.41
2018-07-12T03:19:16.670Z,13.34
2018-07-12T03:20:20.310Z,13.29
2018-07-12T03:21:23.964Z,13.33
2018-07-12T03:22:27.593Z,13.34
2018-07-12T03:23:32.321Z,13.26
2018-07-12T03:24:35.968Z,13.27
2018-07-12T03:25:39.640Z,13.29
2018-07-12T03:26:43.374Z,13.36
2018-07-12T03:27:47.679Z,13.42
2018-07-12T03:28:51.460Z,13.39
2018-07-12T03:29:55.549Z,13.44
2018-07-12T03:30:59.279Z,13.48
2018-07-12T03:32:02.953Z,13.49
2018-07-12T03:33:06.673Z,13.54
2018-07-12T03:34:10.333Z,13.54
2018-07-12T03:36:23.797Z,13.59
2018-07-12T03:37:27.430Z,13.59
2018-07-12T03:38:31.080Z,13.61
2018-07-12T03:39:34.735Z,13.63
2018-07-12T03:40:38.770Z,13.66
2018-07-12T03:41:42.469Z,13.68
2018-07-12T03:42:47.550Z,13.70
2018-07-12T03:43:52.780Z,13.73
2018-07-12T03:44:56.433Z,13.75
2018-07-12T03:46:00.126Z,13.77
2018-07-12T03:47:05.693Z,13.78
2018-07-12T03:48:09.421Z,13.81
2018-07-12T03:49:14.332Z,13.82
2018-07-12T03:50:18.015Z,13.82
2018-07-12T03:51:22.568Z,13.85
2018-07-12T03:52:26.213Z,13.86
2018-07-12T03:53:32.252Z,13.88
2018-07-12T03:54:36.898Z,13.90
2018-07-12T03:55:40.902Z,13.89
2018-07-12T03:56:44.550Z,13.90
2018-07-12T03:57:48.264Z,13.92
2018-07-12T03:58:51.896Z,13.94
2018-07-12T03:59:56.526Z,13.94
2018-07-12T04:01:00.283Z,13.94
2018-07-12T04:02:04.326Z,13.96
2018-07-12T04:03:07.961Z,13.95
2018-07-12T04:04:11.706Z,13.95
2018-07-12T04:05:15.410Z,13.96
2018-07-12T04:06:19.850Z,13.92
2018-07-12T04:07:23.605Z,13.90
2018-07-12T04:08:27.634Z,13.91
2018-07-12T04:09:31.319Z,13.93
2018-07-12T04:10:34.936Z,13.95
2018-07-12T04:11:39.342Z,13.94
2018-07-12T04:12:42.972Z,13.95
2018-07-12T04:13:46.618Z,13.96
2018-07-12T04:14:50.664Z,13.97
2018-07-12T04:15:54.396Z,13.99
2018-07-12T04:16:59.825Z,13.99
2018-07-12T04:18:04.113Z,14.01
2018-07-12T04:19:07.840Z,13.99
2018-07-12T04:20:11.552Z,13.99
2018-07-12T04:21:15.554Z,13.99
2018-07-12T04:22:19.237Z,13.99
2018-07-12T04:23:23.043Z,14.01
2018-07-12T04:24:27.446Z,14.03
2018-07-12T04:25:31.140Z,14.04
2018-07-12T04:26:34.782Z,14.06
2018-07-12T04:27:38.817Z,14.10
2018-07-12T04:28:42.498Z,14.09
2018-07-12T04:29:46.171Z,14.12
2018-07-12T04:30:49.942Z,14.14
2018-07-12T04:31:54.573Z,14.18
2018-07-12T04:32:58.234Z,14.19
2018-07-12T04:34:02.287Z,14.21
2018-07-12T04:35:05.938Z,14.23
2018-07-12T04:36:09.703Z,14.26
2018-07-12T04:37:14.470Z,14.28
2018-07-12T04:38:18.143Z,14.32
2018-07-12T04:39:21.806Z,14.33
2018-07-12T04:40:25.833Z,14.30
2018-07-12T04:41:31.464Z,14.24
2018-07-12T04:42:35.093Z,14.25
2018-07-12T04:43:38.781Z,14.28
2018-07-12T04:44:42.440Z,14.29
2018-07-12T04:45:47.002Z,14.29
2018-07-12T04:46:50.649Z,14.31
2018-07-12T04:47:55.275Z,14.16
2018-07-12T04:48:59.014Z,14.01
2018-07-12T04:50:02.732Z,14.01
2018-07-12T04:51:06.484Z,13.97
2018-07-12T04:52:10.496Z,13.99
2018-07-12T04:53:14.190Z,13.93
2018-07-12T04:54:17.933Z,13.96
2018-07-12T04:55:21.658Z,13.99
2018-07-12T04:56:26.382Z,13.97
2018-07-12T04:57:30.070Z,14.08
2018-07-12T04:58:34.208Z,14.11
2018-07-12T04:59:37.898Z,14.20
2018-07-12T05:00:41.789Z,14.26
2018-07-12T05:01:45.685Z,14.30
2018-07-12T05:02:49.398Z,14.30
2018-07-12T05:03:53.061Z,14.27
2018-07-12T05:04:57.870Z,14.28
2018-07-12T05:06:01.541Z,14.29
2018-07-12T05:07:05.262Z,14.32
2018-07-12T05:08:10.340Z,14.37
2018-07-12T05:09:14.009Z,14.40
2018-07-12T05:10:18.282Z,14.42
2018-07-12T05:11:23.831Z,14.47
2018-07-12T05:12:27.473Z,14.53
2018-07-12T05:13:31.274Z,14.56
2018-07-12T05:14:34.916Z,14.58
2018-07-12T05:15:39.228Z,14.63
2018-07-12T05:16:47.157Z,14.67
2018-07-12T05:17:54.373Z,14.72
2018-07-12T05:19:01.767Z,14.70
2018-07-12T05:20:08.934Z,14.72
2018-07-12T05:21:14.561Z,14.75
2018-07-12T05:22:19.507Z,14.73
2018-07-12T05:23:24.656Z,14.72
2018-07-12T05:24:30.836Z,14.75
2018-07-12T05:25:37.149Z,14.79
2018-07-12T05:26:42.353Z,14.82
2018-07-12T05:27:48.592Z,14.82
2018-07-12T05:28:52.492Z,14.84
2018-07-12T05:29:57.526Z,14.83
2018-07-12T05:31:02.126Z,14.84
2018-07-12T05:32:05.812Z,14.87
2018-07-12T05:33:09.529Z,14.87
2018-07-12T05:34:13.288Z,14.87
2018-07-12T05:35:18.276Z,14.93
2018-07-12T05:36:29.348Z,14.94
2018-07-12T05:37:34.912Z,14.89
2018-07-12T05:38:39.660Z,14.87
2018-07-12T05:39:45.208Z,14.87
2018-07-12T05:40:50.117Z,14.91
2018-07-12T05:41:55.521Z,14.83
2018-07-12T05:43:01.315Z,14.87
2018-07-12T05:44:07.858Z,14.88
2018-07-12T05:45:12.738Z,14.90
2018-07-12T05:46:17.578Z,14.82
2018-07-12T05:47:23.820Z,14.86
2018-07-12T05:48:29.739Z,14.91
2018-07-12T05:49:35.123Z,14.89
2018-07-12T05:50:43.814Z,14.95
2018-07-12T05:51:50.708Z,14.97
2018-07-12T05:52:55.452Z,14.94
2018-07-12T05:54:03.534Z,14.91
2018-07-12T05:55:09.013Z,14.95
2018-07-12T05:56:14.341Z,14.97
2018-07-12T05:57:19.638Z,14.97
2018-07-12T05:58:24.346Z,15.03
2018-07-12T05:59:28.998Z,14.99
2018-07-12T06:00:33.918Z,15.01
2018-07-12T06:01:44.259Z,15.06
2018-07-12T06:02:48.932Z,15.10
2018-07-12T06:03:55.997Z,15.01
2018-07-12T06:05:01.560Z,14.95
2018-07-12T06:06:06.239Z,14.85
2018-07-12T06:07:10.989Z,14.84
2018-07-12T06:08:16.382Z,14.52
2018-07-12T06:09:21.331Z,14.36
2018-07-12T06:10:26.403Z,14.26
2018-07-12T06:11:31.150Z,14.30
2018-07-12T06:12:35.886Z,14.44
2018-07-12T06:13:42.400Z,14.34
2018-07-12T06:14:48.382Z,14.34
2018-07-12T06:15:53.578Z,14.39
2018-07-12T06:17:00.465Z,14.47
2018-07-12T06:18:07.303Z,14.50
2018-07-12T06:19:13.018Z,14.55
2018-07-12T06:20:21.598Z,14.56
2018-07-12T06:21:28.357Z,14.52
2018-07-12T06:22:34.237Z,14.57
2018-07-12T06:23:41.238Z,14.49
2018-07-12T06:24:49.685Z,14.40
2018-07-12T06:25:54.755Z,14.51
2018-07-12T06:27:00.735Z,14.58
2018-07-12T06:28:05.332Z,14.62
2018-07-12T06:29:09.880Z,14.63
2018-07-12T06:30:14.483Z,14.60
2018-07-12T06:31:19.290Z,14.63
2018-07-12T06:32:40.004Z,14.69
2018-07-12T06:33:45.110Z,14.80
2018-07-12T06:34:49.721Z,14.81
2018-07-12T06:35:55.691Z,14.70
2018-07-12T06:37:00.767Z,14.69
2018-07-12T06:38:06.821Z,14.82
2018-07-12T06:39:12.264Z,14.94
2018-07-12T06:40:16.899Z,15.08
2018-07-12T06:41:22.349Z,15.17
2018-07-12T06:42:27.787Z,15.29
2018-07-12T06:43:33.756Z,15.38
2018-07-12T06:44:38.329Z,15.37
2018-07-12T06:45:44.629Z,15.22
2018-07-12T06:46:49.252Z,15.33
2018-07-12T06:47:54.863Z,15.42
2018-07-12T06:49:00.424Z,15.33
2018-07-12T06:50:06.620Z,15.37
2018-07-12T06:51:12.225Z,15.24
2018-07-12T06:52:20.130Z,15.21
2018-07-12T06:53:28.807Z,15.27
2018-07-12T06:54:36.921Z,15.34
2018-07-12T06:55:42.457Z,15.36
2018-07-12T06:56:47.333Z,15.36
2018-07-12T06:57:52.024Z,15.50
2018-07-12T06:58:57.360Z,15.41
2018-07-12T07:00:04.148Z,15.39
2018-07-12T07:01:08.862Z,15.32
2018-07-12T07:02:14.959Z,15.15
2018-07-12T07:03:20.347Z,15.33
2018-07-12T07:04:25.094Z,15.07
2018-07-12T07:05:38.191Z,15.05
2018-07-12T07:06:42.859Z,15.16
2018-07-12T07:07:48.745Z,15.05
2018-07-12T07:08:55.137Z,15.06
2018-07-12T07:10:00.843Z,15.06
2018-07-12T07:11:05.566Z,14.98
2018-07-12T07:12:12.744Z,15.15
2018-07-12T07:13:19.429Z,15.30
2018-07-12T07:14:24.171Z,15.47
2018-07-12T07:15:28.860Z,15.52
2018-07-12T07:16:34.371Z,15.59
2018-07-12T07:17:40.678Z,15.52
2018-07-12T07:18:45.927Z,15.44
2018-07-12T07:19:51.725Z,15.38
2018-07-12T07:20:57.347Z,15.38
2018-07-12T07:22:02.744Z,15.58
2018-07-12T07:23:09.289Z,15.71
2018-07-12T07:24:16.883Z,15.89
2018-07-12T07:25:23.424Z,16.04
2018-07-12T07:26:29.344Z,15.99
2018-07-12T07:27:34.574Z,15.71
2018-07-12T07:28:40.010Z,15.76
2018-07-12T07:29:45.980Z,15.85
2018-07-12T07:30:50.619Z,15.86
2018-07-12T07:31:58.629Z,15.73
2018-07-12T07:33:05.117Z,15.69
2018-07-12T07:34:10.410Z,15.80
2018-07-12T07:35:16.349Z,16.03
2018-07-12T07:36:22.457Z,16.25
2018-07-12T07:37:28.990Z,16.36
2018-07-12T07:38:35.805Z,16.28
2018-07-12T07:39:41.657Z,15.88
2018-07-12T07:40:46.217Z,15.73
2018-07-12T07:41:51.459Z,15.73
2018-07-12T07:42:57.952Z,15.84
2018-07-12T07:44:03.571Z,15.91
2018-07-12T07:45:09.262Z,16.02
2018-07-12T07:46:13.878Z,15.87
2018-07-12T07:47:23.269Z,15.81
2018-07-12T07:48:27.943Z,16.06
2018-07-12T07:49:34.361Z,16.02
2018-07-12T07:50:40.889Z,16.04
2018-07-12T07:51:46.881Z,16.15
2018-07-12T07:52:52.140Z,16.03
2018-07-12T07:53:56.795Z,16.02
2018-07-12T07:55:02.319Z,16.26
2018-07-12T07:56:07.154Z,16.54
2018-07-12T07:57:12.168Z,16.81
2018-07-12T07:58:21.882Z,16.97
2018-07-12T07:59:30.780Z,16.92
2018-07-12T08:00:39.011Z,16.59
2018-07-12T08:01:43.735Z,16.56
2018-07-12T08:02:48.941Z,16.78
2018-07-12T08:03:54.477Z,16.81
2018-07-12T08:05:04.314Z,17.04
2018-07-12T08:06:09.751Z,17.21
2018-07-12T08:07:14.446Z,17.38
2018-07-12T08:08:21.128Z,17.30
2018-07-12T08:09:27.472Z,17.00
2018-07-12T08:10:32.818Z,17.08
2018-07-12T08:11:39.431Z,17.11
2018-07-12T08:12:47.801Z,17.15
2018-07-12T08:13:52.458Z,16.93
2018-07-12T08:15:00.761Z,16.85
2018-07-12T08:16:05.436Z,17.03
2018-07-12T08:17:11.229Z,17.17
2018-07-12T08:18:16.226Z,17.29
2018-07-12T08:19:22.367Z,17.30
2018-07-12T08:20:35.801Z,17.09
2018-07-12T08:21:48.380Z,17.06
2018-07-12T08:22:53.822Z,17.12
2018-07-12T08:23:58.572Z,16.93
2018-07-12T08:25:05.713Z,16.67
2018-07-12T08:26:11.392Z,16.64
2018-07-12T08:27:16.890Z,16.81
2018-07-12T08:28:26.077Z,16.89
2018-07-12T08:29:32.713Z,17.09
2018-07-12T08:30:40.553Z,17.37
2018-07-12T08:31:48.453Z,17.42
2018-07-12T08:32:54.103Z,17.64
2018-07-12T08:33:58.780Z,17.77
2018-07-12T08:35:03.466Z,17.84
2018-07-12T08:36:09.131Z,18.00
2018-07-12T08:37:13.858Z,18.25
2018-07-12T08:38:19.913Z,18.14
2018-07-12T08:39:24.676Z,18.19
2018-07-12T08:40:30.202Z,17.93
2018-07-12T08:41:35.514Z,17.37
2018-07-12T08:42:41.828Z,17.38
2018-07-12T08:43:46.794Z,17.68
2018-07-12T08:44:53.583Z,17.85
2018-07-12T08:45:58.116Z,18.12
2018-07-12T08:47:03.397Z,18.32
2018-07-12T08:48:09.448Z,18.35
2018-07-12T08:49:16.174Z,18.45
2018-07-12T08:50:22.161Z,18.51
2018-07-12T08:51:28.353Z,18.44
2018-07-12T08:52:34.463Z,18.48
2018-07-12T08:53:39.166Z,18.67
2018-07-12T08:54:44.849Z,18.77
2018-07-12T08:55:51.359Z,18.81
2018-07-12T08:56:56.689Z,18.96
2018-07-12T08:58:01.468Z,19.09
2018-07-12T08:59:07.770Z,19.26
2018-07-12T09:00:12.478Z,19.42
2018-07-12T09:01:17.102Z,19.63
2018-07-12T09:02:24.751Z,19.76
2018-07-12T09:03:29.897Z,19.87
2018-07-12T09:04:36.366Z,20.14
2018-07-12T09:05:42.862Z,20.39
2018-07-12T09:06:47.435Z,20.57
2018-07-12T09:07:52.174Z,20.65
2018-07-12T09:08:56.765Z,20.86
2018-07-12T09:10:02.877Z,20.62
2018-07-12T09:11:08.543Z,20.36
2018-07-12T09:12:13.182Z,20.52
2018-07-12T09:13:17.780Z,20.44
2018-07-12T09:14:24.291Z,20.72
2018-07-12T09:15:29.293Z,20.79
2018-07-12T09:16:35.223Z,20.70
2018-07-12T09:17:40.206Z,20.27
2018-07-12T09:18:44.795Z,20.71
2018-07-12T09:19:51.915Z,20.78
2018-07-12T09:21:00.102Z,21.05
2018-07-12T09:22:05.775Z,20.82
2018-07-12T09:23:12.290Z,20.40
2018-07-12T09:24:17.122Z,20.51
2018-07-12T09:25:21.957Z,20.66
2018-07-12T09:26:27.031Z,20.62
2018-07-12T09:27:32.871Z,20.59
2018-07-12T09:28:37.697Z,20.68
2018-07-12T09:29:42.825Z,20.80
2018-07-12T09:30:48.328Z,20.89
2018-07-12T09:31:53.856Z,20.85
2018-07-12T09:32:59.141Z,21.07
2018-07-12T09:34:04.236Z,21.18
2018-07-12T09:35:09.067Z,21.03
2018-07-12T09:36:15.034Z,21.17
2018-07-12T09:37:20.718Z,21.52
2018-07-12T09:40:33.398Z,21.86
2018-07-12T09:41:42.715Z,22.09
2018-07-12T09:42:47.358Z,21.69
2018-07-12T09:43:53.404Z,21.42
2018-07-12T09:44:58.033Z,21.57
2018-07-12T09:46:02.771Z,20.98
2018-07-12T09:47:10.353Z,20.27
2018-07-12T09:48:16.385Z,20.69
2018-07-12T09:49:21.812Z,20.71
2018-07-12T09:50:26.381Z,20.82
2018-07-12T09:51:31.049Z,20.84
2018-07-12T09:52:40.789Z,20.76
2018-07-12T09:53:47.414Z,20.67
2018-07-12T09:54:52.529Z,20.46
2018-07-12T09:56:00.417Z,19.54
2018-07-12T09:57:12.434Z,19.68
2018-07-12T09:58:22.413Z,20.01
2018-07-12T09:59:28.067Z,20.11
2018-07-12T10:00:38.191Z,19.66
2018-07-12T10:01:48.505Z,19.61
2018-07-12T10:03:03.650Z,19.71
2018-07-12T10:04:08.777Z,19.73
2018-07-12T10:05:19.962Z,19.88
2018-07-12T10:06:41.741Z,19.93
2018-07-12T10:07:57.035Z,20.05
2018-07-12T10:11:21.788Z,20.14
2018-07-12T10:12:32.925Z,20.08
2018-07-12T10:15:04.962Z,20.66
2018-07-12T10:16:15.780Z,20.89
2018-07-12T10:17:25.323Z,20.89
2018-07-12T10:18:31.093Z,20.69
2018-07-12T10:19:38.096Z,20.49
2018-07-12T10:20:43.244Z,20.66
2018-07-12T10:21:48.005Z,20.82
2018-07-12T10:22:52.689Z,20.51
2018-07-12T10:23:58.598Z,20.71
2018-07-12T10:25:04.022Z,20.96
2018-07-12T10:26:08.887Z,21.04
2018-07-12T10:27:16.648Z,21.21
2018-07-12T10:28:22.953Z,21.25
2018-07-12T10:29:28.653Z,21.17
2018-07-12T10:30:35.661Z,21.30
2018-07-12T10:31:41.859Z,21.41
2018-07-12T10:32:48.128Z,21.50
2018-07-12T10:33:52.857Z,21.81
2018-07-12T10:34:57.807Z,22.05
2018-07-12T10:36:03.515Z,22.14
2018-07-12T10:37:08.555Z,21.96
2018-07-12T10:38:14.167Z,21.92
2018-07-12T10:39:23.311Z,22.05
2018-07-12T10:40:31.125Z,22.09
2018-07-12T10:41:39.303Z,22.12
2018-07-12T10:42:47.925Z,22.13
2018-07-12T10:43:53.212Z,22.01
2018-07-12T10:44:58.146Z,21.57
2018-07-12T10:46:04.383Z,21.77
2018-07-12T10:47:09.397Z,21.86
2018-07-12T10:48:14.060Z,21.75
2018-07-12T10:49:20.077Z,21.54
2018-07-12T10:50:28.667Z,21.44
2018-07-12T10:51:34.705Z,21.36
2018-07-12T10:52:39.355Z,21.54
2018-07-12T10:53:44.360Z,21.82
2018-07-12T10:54:53.628Z,22.21
2018-07-12T10:56:02.342Z,22.13
2018-07-12T10:57:07.259Z,21.85
2018-07-12T10:58:13.896Z,21.91
2018-07-12T10:59:20.664Z,21.84
2018-07-12T11:00:26.342Z,21.75
2018-07-12T11:01:31.668Z,21.78
2018-07-12T11:02:37.868Z,21.77
2018-07-12T11:03:43.347Z,21.56
2018-07-12T11:04:51.692Z,21.85
2018-07-12T11:05:58.089Z,22.23
2018-07-12T11:07:03.367Z,22.20
2018-07-12T11:08:11.360Z,22.13
2018-07-12T11:09:16.426Z,22.16
2018-07-12T11:10:21.830Z,22.29
2018-07-12T11:11:26.965Z,22.50
2018-07-12T11:12:32.537Z,22.54
2018-07-12T11:13:42.324Z,22.69
2018-07-12T11:14:47.474Z,22.69
2018-07-12T11:15:52.251Z,22.36
2018-07-12T11:16:57.124Z,22.48
2018-07-12T11:18:04.009Z,22.29
2018-07-12T11:19:08.690Z,22.31
2018-07-12T11:20:15.692Z,22.51
2018-07-12T11:21:23.457Z,22.70
2018-07-12T11:22:30.278Z,23.19
2018-07-12T11:23:36.135Z,23.26
2018-07-12T11:24:42.468Z,23.44
2018-07-12T11:25:47.308Z,23.47
2018-07-12T11:26:52.922Z,23.50
2018-07-12T11:28:00.413Z,23.01
2018-07-12T11:29:06.659Z,22.68
2018-07-12T11:30:12.254Z,22.47
2018-07-12T11:31:17.503Z,22.38
2018-07-12T11:32:22.863Z,22.32
2018-07-12T11:33:47.168Z,22.20
2018-07-12T11:35:55.393Z,21.93
2018-07-12T11:37:00.942Z,21.96
2018-07-12T11:38:05.571Z,21.83
2018-07-12T11:39:12.175Z,21.67
2018-07-12T11:40:17.894Z,21.82
2018-07-12T11:41:23.252Z,22.16
2018-07-12T11:42:31.325Z,22.48
2018-07-12T11:43:36.964Z,22.32
2018-07-12T11:44:44.260Z,22.63
2018-07-12T11:45:49.653Z,22.68
2018-07-12T11:46:57.345Z,22.92
2018-07-12T11:48:05.626Z,22.74
2018-07-12T11:49:11.825Z,22.93
2018-07-12T11:50:16.638Z,22.94
2018-07-12T11:51:23.438Z,22.98
2018-07-12T11:52:28.996Z,23.01
2018-07-12T11:53:34.180Z,23.20
2018-07-12T11:54:39.564Z,23.49
2018-07-12T11:55:44.262Z,23.66
2018-07-12T11:56:49.606Z,23.62
2018-07-12T11:57:57.488Z,23.39
2018-07-12T11:59:03.495Z,23.60
2018-07-12T12:00:08.790Z,23.60
2018-07-12T12:01:13.432Z,23.64
2018-07-12T12:02:18.965Z,23.63
2018-07-12T12:03:25.184Z,23.71
2018-07-12T12:04:34.032Z,23.45
2018-07-12T12:05:42.482Z,23.37
2018-07-12T12:06:48.820Z,23.20
2018-07-12T12:07:54.300Z,23.38
2018-07-12T12:08:59.618Z,23.43
2018-07-12T12:10:07.074Z,23.53
2018-07-12T12:11:12.632Z,23.95
2018-07-12T12:12:17.512Z,23.96
2018-07-12T12:13:22.186Z,24.03
2018-07-12T12:14:27.139Z,23.99
2018-07-12T12:15:32.736Z,24.13
2018-07-12T12:16:38.284Z,24.37
2018-07-12T12:17:43.545Z,24.18
2018-07-12T12:18:49.569Z,24.27
2018-07-12T12:19:55.441Z,24.55
2018-07-12T12:21:00.046Z,24.69
2018-07-12T12:22:07.735Z,24.69
2018-07-12T12:23:12.734Z,24.72
2018-07-12T12:24:17.549Z,24.30
2018-07-12T12:25:22.758Z,23.99
2018-07-12T12:26:30.380Z,24.26
2018-07-12T12:27:36.437Z,24.48
2018-07-12T12:28:42.327Z,24.57
2018-07-12T12:29:48.539Z,24.25
2018-07-12T12:30:53.735Z,24.42
2018-07-12T12:31:58.721Z,24.57
2018-07-12T12:33:06.942Z,24.67
2018-07-12T12:34:12.273Z,24.48
2018-07-12T12:35:17.603Z,24.55
2018-07-12T12:36:26.555Z,24.69
2018-07-12T12:37:31.857Z,24.55
2018-07-12T12:38:36.783Z,24.60
2018-07-12T12:39:42.378Z,24.73
2018-07-12T12:40:47.041Z,24.61
2018-07-12T12:41:54.055Z,24.79
2018-07-12T12:42:59.405Z,25.01
2018-07-12T12:44:06.731Z,25.01
2018-07-12T12:45:11.497Z,24.85
2018-07-12T12:46:17.805Z,25.01
2018-07-12T12:47:24.488Z,25.22
2018-07-12T12:48:30.399Z,25.11
2018-07-12T12:49:36.202Z,25.19
2018-07-12T12:50:42.553Z,25.22
2018-07-12T12:51:48.375Z,25.15
2018-07-12T12:52:54.099Z,25.03
2018-07-12T12:53:59.332Z,24.94
2018-07-12T12:55:03.961Z,24.37
2018-07-12T12:56:08.523Z,24.64
2018-07-12T12:57:14.260Z,23.87
2018-07-12T12:58:19.930Z,23.88
2018-07-12T12:59:24.665Z,24.54
2018-07-12T13:00:29.449Z,25.00
2018-07-12T13:01:36.910Z,25.12
2018-07-12T13:02:50.732Z,24.75
2018-07-12T13:03:59.588Z,24.78
2018-07-12T13:05:11.365Z,24.85
2018-07-12T13:06:22.665Z,24.88
2018-07-12T13:07:29.250Z,25.08
2018-07-12T13:08:36.698Z,25.19
2018-07-12T13:09:44.369Z,25.02
2018-07-12T13:10:51.699Z,25.19
2018-07-12T13:11:56.426Z,25.38
2018-07-12T13:19:04.470Z,25.34
2018-07-12T13:20:10.526Z,24.53
2018-07-12T13:21:18.427Z,24.56
2018-07-12T13:22:23.542Z,24.94
2018-07-12T13:23:30.085Z,25.39
2018-07-12T13:24:36.362Z,25.71
2018-07-12T13:25:43.958Z,24.88
2018-07-12T13:26:50.546Z,24.26
2018-07-12T13:28:02.498Z,24.29
2018-07-12T13:29:08.604Z,24.64
2018-07-12T13:30:14.377Z,25.04
2018-07-12T13:31:23.380Z,25.50
2018-07-12T13:32:31.794Z,25.78
2018-07-12T13:33:38.658Z,25.75
2018-07-12T13:34:43.967Z,24.73
2018-07-12T13:35:50.329Z,25.04
2018-07-12T13:36:55.130Z,24.77
2018-07-12T13:38:01.576Z,25.09
2018-07-12T13:39:09.307Z,24.33
2018-07-12T13:40:15.049Z,24.88
2018-07-12T13:41:19.783Z,25.02
2018-07-12T13:42:26.789Z,25.61
2018-07-12T13:43:33.823Z,25.66
2018-07-12T13:44:39.828Z,25.48
2018-07-12T13:45:46.433Z,25.83
2018-07-12T13:46:52.993Z,26.32
2018-07-12T13:47:59.252Z,26.27
2018-07-12T13:49:03.939Z,25.89
2018-07-12T13:50:08.600Z,24.99
2018-07-12T13:51:13.376Z,25.11
2018-07-12T13:52:19.304Z,25.11
2018-07-12T13:53:25.349Z,24.65
2018-07-12T13:54:30.651Z,24.66
2018-07-12T13:55:35.442Z,24.73
2018-07-12T13:56:45.218Z,24.26
2018-07-12T13:57:49.786Z,24.18
2018-07-12T13:58:55.428Z,25.08
2018-07-12T14:00:02.802Z,25.80
2018-07-12T14:01:08.468Z,26.19
2018-07-12T14:02:13.553Z,25.98
2018-07-12T14:03:19.040Z,26.13
2018-07-12T14:04:25.144Z,25.91
2018-07-12T14:05:37.136Z,25.84
2018-07-12T14:06:42.671Z,25.80
2018-07-12T14:07:47.479Z,25.74
2018-07-12T14:08:52.389Z,26.01
2018-07-12T14:09:58.069Z,26.00
2018-07-12T14:11:03.348Z,26.07
2018-07-12T14:12:11.931Z,26.16
2018-07-12T14:13:23.487Z,26.30
2018-07-12T14:14:29.784Z,26.12
2018-07-12T14:15:35.379Z,26.16
2018-07-12T14:16:41.162Z,26.02
2018-07-12T14:17:46.920Z,26.31
2018-07-12T14:18:54.261Z,26.96